createdAt,value
2023-02-19T00:00:31.525Z,93260.00
2023-02-19T00:01:31.620Z,93261.00
2023-02-19T00:02:31.702Z,93263.00
2023-02-19T00:03:31.856Z,93265.00
2023-02-19T00:04:31.892Z,93267.00
2023-02-19T00:05:31.978Z,93261.00
2023-02-19T00:06:32.072Z,93261.00
2023-02-19T00:07:32.171Z,93261.00
2023-02-19T00:08:32.260Z,93263.00
2023-02-19T00:09:32.356Z,93256.00
2023-02-19T00:10:32.445Z,93260.00
2023-02-19T00:11:32.537Z,93256.00
2023-02-19T00:12:32.633Z,93248.00
2023-02-19T00:13:32.726Z,93256.00
2023-02-19T00:14:32.813Z,93248.00
2023-02-19T00:15:33.052Z,93250.00
2023-02-19T00:16:33.006Z,93250.00
2023-02-19T00:17:33.091Z,93244.00
2023-02-19T00:18:33.189Z,93248.00
2023-02-19T00:19:33.354Z,93248.00
2023-02-19T00:20:33.355Z,93252.00
2023-02-19T00:21:33.456Z,93248.00
2023-02-19T00:22:33.542Z,93248.00
2023-02-19T00:23:33.637Z,93250.00
2023-02-19T00:24:33.720Z,93244.00
2023-02-19T00:25:33.806Z,93236.00
2023-02-19T00:26:33.895Z,93240.00
2023-02-19T00:27:33.990Z,93238.00
2023-02-19T00:28:34.091Z,93228.00
2023-02-19T00:29:34.247Z,93228.00
2023-02-19T00:30:34.289Z,93224.00
2023-02-19T00:31:34.522Z,93236.00
2023-02-19T00:32:34.545Z,93230.00
2023-02-19T00:33:34.543Z,93236.00
2023-02-19T00:34:34.639Z,93244.00
2023-02-19T00:35:34.737Z,93238.00
2023-02-19T00:36:34.826Z,93238.00
2023-02-19T00:37:34.904Z,93236.00
2023-02-19T00:38:34.993Z,93230.00
2023-02-19T00:39:35.085Z,93240.00
2023-02-19T01:09:37.830Z,93234.00
2023-02-19T01:10:37.922Z,93240.00
2023-02-19T01:11:38.014Z,93240.00
2023-02-19T01:12:38.100Z,93226.00
2023-02-19T01:13:38.183Z,93238.00
2023-02-19T01:14:38.274Z,93238.00
2023-02-19T01:15:38.357Z,93236.00
2023-02-19T01:16:38.442Z,93222.00
2023-02-19T01:17:38.534Z,93228.00
2023-02-19T01:18:38.613Z,93238.00
2023-02-19T01:19:38.695Z,93232.00
2023-02-19T01:20:38.790Z,93224.00
2023-02-19T01:21:38.876Z,93222.00
2023-02-19T01:22:38.966Z,93224.00
2023-02-19T01:23:39.051Z,93222.00
2023-02-19T01:24:39.137Z,93220.00
2023-02-19T01:25:39.231Z,93218.00
2023-02-19T01:26:39.312Z,93214.00
2023-02-19T01:27:39.402Z,93214.00
2023-02-19T01:28:39.479Z,93216.00
2023-02-19T01:29:39.561Z,93222.00
2023-02-19T01:30:39.664Z,93222.00
2023-02-19T01:31:39.795Z,93222.00
2023-02-19T01:32:39.827Z,93222.00
2023-02-19T01:33:39.894Z,93220.00
2023-02-19T01:34:39.983Z,93224.00
2023-02-19T01:35:40.066Z,93224.00
2023-02-19T01:36:40.148Z,93222.00
2023-02-19T01:37:40.234Z,93224.00
2023-02-19T01:38:40.316Z,93224.00
2023-02-19T01:39:40.411Z,93224.00
2023-02-19T01:40:40.483Z,93222.00
2023-02-19T01:41:40.590Z,93222.00
2023-02-19T01:42:40.662Z,93220.00
2023-02-19T01:43:40.742Z,93220.00
2023-02-19T01:44:40.817Z,93218.00
2023-02-19T01:45:40.903Z,93216.00
2023-02-19T01:46:41.017Z,93214.00
2023-02-19T01:47:41.072Z,93213.00
2023-02-19T01:48:41.160Z,93218.00
2023-02-19T01:49:41.239Z,93213.00
2023-02-19T01:50:41.328Z,93213.00
2023-02-19T01:51:41.427Z,93209.00
2023-02-19T01:52:41.490Z,93201.00
2023-02-19T01:53:41.576Z,93195.00
2023-02-19T01:54:41.664Z,93197.00
2023-02-19T03:10:47.875Z,93119.00
2023-02-19T03:11:47.955Z,93134.00
2023-02-19T03:12:48.037Z,93128.00
2023-02-19T03:13:48.124Z,93124.00
2023-02-19T03:14:48.271Z,93134.00
2023-02-19T03:15:48.289Z,93132.00
2023-02-19T03:21:48.806Z,93124.00
2023-02-19T03:22:48.882Z,93138.00
2023-02-19T05:13:57.801Z,93021.00
2023-02-19T05:14:57.875Z,93015.00
2023-02-19T05:15:57.975Z,93007.00
2023-02-19T05:16:58.018Z,93007.00
2023-02-19T05:17:58.089Z,92999.00
2023-02-19T05:18:58.160Z,92987.00
2023-02-19T05:19:58.238Z,92987.00
2023-02-19T05:20:58.308Z,92985.00
2023-02-19T05:21:58.393Z,92983.00
2023-02-19T05:22:58.469Z,92981.00
2023-02-19T05:23:58.534Z,92983.00
2023-02-19T05:24:58.606Z,92997.00
2023-02-19T05:25:58.679Z,92999.00
2023-02-19T05:26:58.772Z,93007.00
2023-02-19T05:27:58.830Z,93001.00
2023-02-19T05:28:58.895Z,93011.00
2023-02-19T05:29:59.148Z,93015.00
2023-02-19T05:30:59.069Z,93013.00
2023-02-19T05:31:59.164Z,93005.00
2023-02-19T05:32:59.178Z,93011.00
2023-02-19T05:33:59.245Z,93005.00
2023-02-19T05:34:59.318Z,93013.00
2023-02-19T05:35:59.396Z,93015.00
2023-02-19T05:36:59.469Z,93021.00
2023-02-19T05:37:59.536Z,93023.00
2023-02-19T05:38:59.622Z,93036.00
2023-02-19T05:39:59.734Z,93046.00
2023-02-19T05:40:59.757Z,93052.00
2023-02-19T05:41:59.831Z,93046.00
2023-02-19T05:42:59.896Z,93044.00
2023-02-19T05:43:59.975Z,93054.00
2023-02-19T05:45:00.049Z,93058.00
2023-02-19T05:46:00.141Z,93050.00
2023-02-19T05:47:00.196Z,93056.00
2023-02-19T05:48:00.333Z,93056.00
2023-02-19T05:49:00.355Z,93064.00
2023-02-19T05:50:00.439Z,93074.00
2023-02-19T05:51:00.511Z,93074.00
2023-02-19T05:52:00.597Z,93075.00
2023-02-19T05:53:00.682Z,93077.00
2023-02-19T05:54:00.758Z,93089.00
2023-02-19T05:55:00.836Z,93077.00
2023-02-19T05:56:00.948Z,93081.00
2023-02-19T05:57:00.994Z,93087.00
2023-02-19T05:58:01.075Z,93077.00
2023-02-19T05:59:01.212Z,93083.00
2023-02-19T06:00:01.225Z,93081.00
2023-02-19T06:01:01.297Z,93093.00
2023-02-19T06:02:01.377Z,93107.00
2023-02-19T07:26:07.863Z,93218.00
2023-02-19T07:27:07.923Z,93220.00
2023-02-19T07:28:07.997Z,93216.00
2023-02-19T07:29:08.081Z,93222.00
2023-02-19T07:30:08.191Z,93224.00
2023-02-19T07:31:08.443Z,93234.00
2023-02-19T07:32:08.353Z,93234.00
2023-02-19T07:33:10.457Z,93234.00
2023-02-19T07:34:08.453Z,93234.00
2023-02-19T07:35:08.533Z,93232.00
2023-02-19T07:36:08.604Z,93236.00
2023-02-19T07:37:08.681Z,93236.00
2023-02-19T09:35:17.841Z,93226.00
2023-02-19T09:36:17.907Z,93230.00
2023-02-19T09:37:17.975Z,93224.00
2023-02-19T09:38:18.074Z,93226.00
2023-02-19T09:39:18.134Z,93226.00
2023-02-19T09:40:18.213Z,93224.00
2023-02-19T09:41:18.268Z,93220.00
2023-02-19T12:24:27.805Z,93130.00
2023-02-19T12:25:27.874Z,93120.00
2023-02-19T12:26:27.914Z,93117.00
2023-02-19T12:27:27.969Z,93109.00
2023-02-19T12:28:28.017Z,93109.00
2023-02-19T12:29:28.080Z,93093.00
2023-02-19T12:30:28.171Z,93109.00
2023-02-19T12:31:28.236Z,93107.00
2023-02-19T12:32:28.241Z,93109.00
2023-02-19T12:33:28.302Z,93113.00
2023-02-19T12:34:28.356Z,93109.00
2023-02-19T12:35:28.403Z,93097.00
2023-02-19T12:36:28.464Z,93095.00
2023-02-19T12:37:28.523Z,93089.00
2023-02-19T12:38:28.566Z,93095.00
2023-02-19T12:39:28.639Z,93093.00
2023-02-19T12:40:28.677Z,93095.00
2023-02-19T12:41:28.726Z,93107.00
2023-02-19T12:42:28.799Z,93111.00
2023-02-19T12:43:28.845Z,93107.00
2023-02-19T12:44:28.908Z,93093.00
2023-02-19T12:45:28.954Z,93105.00
2023-02-19T12:46:29.026Z,93105.00
2023-02-19T12:47:29.064Z,93105.00
2023-02-19T12:48:29.121Z,93097.00
2023-02-19T12:49:29.187Z,93111.00
2023-02-19T12:50:29.232Z,93097.00
2023-02-19T12:51:29.294Z,93091.00
2023-02-19T12:52:29.373Z,93087.00
2023-02-19T12:53:29.413Z,93087.00
2023-02-19T12:54:29.468Z,93085.00
2023-02-19T12:55:29.526Z,93081.00
2023-02-19T12:56:29.589Z,93097.00
2023-02-19T12:57:29.632Z,93097.00
2023-02-19T12:58:29.691Z,93095.00
2023-02-19T12:59:29.734Z,93089.00
2023-02-19T13:00:29.799Z,93089.00
2023-02-19T13:01:29.914Z,93091.00
2023-02-19T13:02:29.942Z,93077.00
2023-02-19T13:03:29.961Z,93095.00
2023-02-19T13:04:30.022Z,93095.00
2023-02-19T13:05:30.080Z,93095.00
2023-02-19T13:06:30.127Z,93095.00
2023-02-19T13:07:30.186Z,93093.00
2023-02-19T13:08:30.469Z,93093.00
2023-02-19T13:09:30.312Z,93093.00
2023-02-19T13:10:30.360Z,93079.00
2023-02-19T13:11:30.462Z,93081.00
2023-02-19T13:12:30.471Z,93087.00
2023-02-19T13:13:30.531Z,93085.00
2023-02-19T13:14:30.597Z,93081.00
2023-02-19T13:15:30.653Z,93093.00
2023-02-19T13:16:30.728Z,93083.00
2023-02-19T13:17:30.786Z,93079.00
2023-02-19T13:18:30.831Z,93081.00
2023-02-19T13:19:30.896Z,93083.00
2023-02-19T13:20:30.955Z,93095.00
2023-02-19T13:21:31.019Z,93091.00
2023-02-19T13:22:31.064Z,93089.00
2023-02-19T13:23:31.120Z,93093.00
2023-02-19T13:24:31.189Z,93093.00
2023-02-19T13:25:31.241Z,93095.00
2023-02-19T13:26:31.299Z,93089.00
2023-02-19T13:27:31.356Z,93113.00
2023-02-19T13:28:31.407Z,93107.00
2023-02-19T13:29:31.468Z,93111.00
2023-02-19T13:30:31.580Z,93097.00
2023-02-19T13:31:31.731Z,93109.00
2023-02-19T13:32:31.627Z,93107.00
2023-02-19T13:33:31.695Z,93089.00
2023-02-19T13:34:31.742Z,93113.00
2023-02-19T13:35:31.792Z,93111.00
2023-02-19T13:36:31.860Z,93105.00
2023-02-19T13:37:31.913Z,93105.00
2023-02-19T13:38:31.961Z,93109.00
2023-02-19T13:39:32.024Z,93107.00
2023-02-19T13:40:32.085Z,93097.00
2023-02-19T13:41:32.126Z,93113.00
2023-02-19T13:42:32.180Z,93115.00
2023-02-19T13:43:32.223Z,93117.00
2023-02-19T13:44:32.289Z,93113.00
2023-02-19T13:45:32.342Z,93111.00
2023-02-19T13:46:32.393Z,93124.00
2023-02-19T13:47:32.442Z,93130.00
2023-02-19T13:48:32.498Z,93132.00
2023-02-19T13:49:32.547Z,93122.00
2023-02-19T13:50:32.610Z,93113.00
2023-02-19T13:51:32.661Z,93105.00
2023-02-19T13:52:32.701Z,93119.00
2023-02-19T13:53:32.748Z,93120.00
2023-02-19T13:54:32.802Z,93124.00
2023-02-19T13:55:32.851Z,93126.00
2023-02-19T13:56:32.905Z,93119.00
2023-02-19T13:57:32.955Z,93113.00
2023-02-19T13:58:33.036Z,93117.00
2023-02-19T13:59:33.078Z,93115.00
2023-02-19T14:00:33.142Z,93117.00
2023-02-19T14:01:33.232Z,93117.00
2023-02-19T14:02:33.288Z,93115.00
2023-02-19T14:03:33.303Z,93120.00
2023-02-19T14:04:33.359Z,93134.00
2023-02-19T14:05:33.410Z,93132.00
2023-02-19T14:06:33.477Z,93126.00
2023-02-19T14:07:33.519Z,93117.00
2023-02-19T14:08:33.570Z,93120.00
2023-02-19T14:09:33.621Z,93115.00
2023-02-19T14:10:33.678Z,93115.00
2023-02-19T14:11:33.741Z,93130.00
2023-02-19T14:12:33.795Z,93128.00
2023-02-19T14:13:33.857Z,93126.00
2023-02-19T14:14:33.909Z,93119.00
2023-02-19T14:15:34.088Z,93113.00
2023-02-19T14:16:34.022Z,93126.00
2023-02-19T14:17:34.421Z,93132.00
2023-02-19T14:18:34.132Z,93136.00
2023-02-19T14:19:34.193Z,93142.00
2023-02-19T14:20:34.240Z,93124.00
2023-02-19T14:21:34.303Z,93119.00
2023-02-19T14:22:34.349Z,93124.00
2023-02-19T14:23:34.417Z,93144.00
2023-02-19T14:24:34.470Z,93142.00
2023-02-19T14:25:34.521Z,93146.00
2023-02-19T14:26:34.564Z,93146.00
2023-02-19T14:27:34.621Z,93142.00
2023-02-19T14:28:34.666Z,93144.00
2023-02-19T14:29:34.715Z,93142.00
2023-02-19T14:30:34.829Z,93148.00
2023-02-19T14:31:34.928Z,93142.00
2023-02-19T14:32:34.876Z,93144.00
2023-02-19T14:33:34.962Z,93152.00
2023-02-19T14:34:34.971Z,93144.00
2023-02-19T14:35:35.029Z,93142.00
2023-02-19T14:36:35.088Z,93144.00
2023-02-19T14:37:35.153Z,93154.00
2023-02-19T14:38:35.185Z,93158.00
2023-02-19T14:39:35.269Z,93156.00
2023-02-19T14:40:35.309Z,93158.00
2023-02-19T14:41:35.367Z,93156.00
2023-02-19T14:42:35.417Z,93154.00
2023-02-19T14:43:35.473Z,93166.00
2023-02-19T14:44:35.524Z,93167.00
2023-02-19T14:45:35.566Z,93169.00
2023-02-19T14:46:35.676Z,93169.00
2023-02-19T14:47:35.682Z,93162.00
2023-02-19T14:48:35.730Z,93162.00
2023-02-19T14:49:35.869Z,93160.00
2023-02-19T14:50:35.842Z,93169.00
2023-02-19T14:51:35.899Z,93167.00
2023-02-19T14:52:35.945Z,93158.00
2023-02-19T14:53:36.003Z,93158.00
2023-02-19T14:54:36.074Z,93160.00
2023-02-19T14:55:36.118Z,93164.00
2023-02-19T14:56:36.169Z,93160.00
2023-02-19T14:57:36.233Z,93158.00
2023-02-19T14:58:36.291Z,93156.00
2023-02-19T14:59:36.338Z,93156.00
2023-02-19T15:25:37.856Z,93164.00
2023-02-19T15:26:37.889Z,93162.00
2023-02-19T15:27:38.856Z,93171.00
2023-02-19T15:28:38.003Z,93171.00
2023-02-19T15:29:38.055Z,93169.00
2023-02-19T15:30:38.136Z,93175.00
2023-02-19T15:31:38.311Z,93187.00
2023-02-19T15:32:38.238Z,93191.00
2023-02-19T15:33:38.300Z,93193.00
2023-02-19T15:34:38.369Z,93187.00
2023-02-19T15:35:38.414Z,93191.00
2023-02-19T15:36:38.476Z,93191.00
2023-02-19T15:37:38.528Z,93191.00
2023-02-19T15:38:38.589Z,93189.00
2023-02-19T15:39:38.639Z,93187.00
2023-02-19T15:40:38.692Z,93181.00
2023-02-19T15:41:38.740Z,93191.00
2023-02-19T15:42:38.797Z,93191.00
2023-02-19T15:43:38.849Z,93199.00
2023-02-19T15:44:38.909Z,93203.00
2023-02-19T15:45:38.960Z,93207.00
2023-02-19T15:46:39.046Z,93214.00
2023-02-19T15:47:39.088Z,93216.00
2023-02-19T15:48:39.135Z,93214.00
2023-02-19T15:49:39.189Z,93216.00
2023-02-19T15:50:39.256Z,93211.00
2023-02-19T15:51:39.308Z,93218.00
2023-02-19T15:52:39.368Z,93228.00
2023-02-19T15:53:39.946Z,93236.00
2023-02-19T15:54:39.466Z,93234.00
2023-02-19T15:55:39.526Z,93240.00
2023-02-19T15:56:39.575Z,93244.00
2023-02-19T15:57:39.638Z,93242.00
2023-02-19T15:58:39.692Z,93248.00
2023-02-19T15:59:39.742Z,93242.00
2023-02-19T16:00:39.798Z,93240.00
2023-02-19T16:38:41.302Z,93271.00
2023-02-19T16:39:41.322Z,93273.00
2023-02-19T16:40:41.347Z,93271.00
2023-02-19T16:41:41.374Z,93267.00
2023-02-19T16:42:41.382Z,93271.00
2023-02-19T16:43:41.407Z,93269.00
2023-02-19T16:44:41.440Z,93269.00
2023-02-19T16:45:41.452Z,93263.00
2023-02-19T16:46:41.464Z,93267.00
2023-02-19T16:47:41.538Z,93267.00
2023-02-19T16:48:41.518Z,93273.00
2023-02-19T16:49:41.538Z,93275.00
2023-02-19T16:50:41.549Z,93281.00
2023-02-19T16:51:41.583Z,93275.00
2023-02-19T16:52:41.587Z,93279.00
2023-02-19T16:53:41.612Z,93277.00
2023-02-19T16:54:41.648Z,93277.00
2023-02-19T16:55:41.647Z,93277.00
2023-02-19T16:56:41.730Z,93279.00
2023-02-19T16:57:41.692Z,93277.00
2023-02-19T16:58:41.716Z,93285.00
2023-02-19T16:59:41.744Z,93279.00
2023-02-19T17:00:41.822Z,93283.00
2023-02-19T17:01:41.772Z,93283.00
2023-02-19T17:02:41.793Z,93293.00
2023-02-19T17:03:41.867Z,93291.00
2023-02-19T17:04:41.922Z,93297.00
2023-02-19T17:05:41.947Z,93293.00
2023-02-19T17:06:42.018Z,93297.00
2023-02-19T17:07:42.063Z,93297.00
2023-02-19T17:08:42.112Z,93301.00
2023-02-19T17:09:42.192Z,93303.00
2023-02-19T17:10:42.289Z,93303.00
2023-02-19T17:11:42.286Z,93307.00
2023-02-19T17:12:42.337Z,93307.00
2023-02-19T17:13:42.387Z,93312.00
2023-02-19T17:14:42.452Z,93318.00
2023-02-19T17:15:42.509Z,93320.00
2023-02-19T17:16:42.565Z,93328.00
2023-02-19T17:17:42.611Z,93326.00
2023-02-19T17:18:42.679Z,93324.00
2023-02-19T17:19:42.736Z,93334.00
2023-02-19T17:20:42.796Z,93334.00
2023-02-19T17:21:42.851Z,93334.00
2023-02-19T17:22:42.895Z,93328.00
2023-02-19T17:23:42.962Z,93346.00
2023-02-19T17:24:43.032Z,93344.00
2023-02-19T17:25:43.069Z,93346.00
2023-02-19T17:26:43.129Z,93350.00
2023-02-19T17:27:43.186Z,93350.00
2023-02-19T17:28:43.242Z,93350.00
2023-02-19T17:29:43.367Z,93352.00
2023-02-19T17:30:43.359Z,93348.00
2023-02-19T17:31:43.458Z,93365.00
2023-02-19T17:32:43.474Z,93367.00
2023-02-19T17:33:43.528Z,93354.00
2023-02-19T17:34:43.593Z,93367.00
2023-02-19T17:35:43.662Z,93369.00
2023-02-19T17:36:43.703Z,93377.00
2023-02-19T17:37:43.765Z,93375.00
2023-02-19T17:38:43.830Z,93381.00
2023-02-19T17:39:43.884Z,93400.00
2023-02-19T17:40:43.965Z,93393.00
2023-02-19T17:41:44.003Z,93397.00
2023-02-19T17:42:44.063Z,93387.00
2023-02-19T17:43:44.135Z,93389.00
2023-02-19T17:44:44.187Z,93383.00
2023-02-19T17:45:44.261Z,93383.00
2023-02-19T17:46:44.317Z,93391.00
2023-02-19T17:47:44.381Z,93395.00
2023-02-19T17:48:44.448Z,93400.00
2023-02-19T17:49:44.508Z,93399.00
2023-02-19T17:50:44.579Z,93402.00
2023-02-19T17:51:44.638Z,93412.00
2023-02-19T17:52:44.682Z,93402.00
2023-02-19T17:53:44.761Z,93410.00
2023-02-19T17:54:44.807Z,93414.00
2023-02-19T17:55:44.869Z,93414.00
2023-02-19T17:56:44.942Z,93408.00
2023-02-19T17:57:44.995Z,93408.00
2023-02-19T17:58:45.053Z,93406.00
2023-02-19T17:59:45.114Z,93410.00
2023-02-19T18:00:45.171Z,93412.00
2023-02-19T18:01:45.228Z,93408.00
2023-02-19T18:02:45.305Z,93406.00
2023-02-19T18:03:45.364Z,93414.00
2023-02-19T18:04:45.405Z,93414.00
2023-02-19T18:05:45.481Z,93416.00
2023-02-19T18:06:45.530Z,93416.00
2023-02-19T18:07:45.577Z,93418.00
2023-02-19T18:08:45.631Z,93424.00
2023-02-19T18:09:45.688Z,93418.00
2023-02-19T18:10:45.746Z,93418.00
2023-02-19T18:11:45.807Z,93406.00
2023-02-19T18:12:45.865Z,93414.00
2023-02-19T18:13:45.925Z,93412.00
2023-02-19T18:14:45.989Z,93416.00
2023-02-19T18:16:47.660Z,93422.00
2023-02-19T18:17:46.112Z,93428.00
2023-02-19T18:18:46.145Z,93432.00
2023-02-19T18:19:46.166Z,93434.00
2023-02-19T18:20:46.179Z,93438.00
2023-02-19T18:21:46.211Z,93440.00
2023-02-19T18:22:46.225Z,93447.00
2023-02-19T18:23:46.241Z,93446.00
2023-02-19T18:24:46.269Z,93446.00
2023-02-19T18:25:46.277Z,93446.00
2023-02-19T18:26:46.301Z,93446.00
2023-02-19T18:27:46.318Z,93455.00
2023-02-19T18:28:46.337Z,93455.00
2023-02-19T18:29:46.370Z,93455.00
2023-02-19T18:30:46.665Z,93455.00
2023-02-19T18:31:46.530Z,93457.00
2023-02-19T18:32:46.432Z,93457.00
2023-02-19T18:33:46.450Z,93459.00
2023-02-19T18:34:46.466Z,93459.00
2023-02-19T18:35:46.488Z,93457.00
2023-02-19T19:10:47.815Z,93477.00
2023-02-19T19:11:47.868Z,93479.00
2023-02-19T19:12:47.967Z,93477.00
2023-02-19T19:13:48.007Z,93479.00
2023-02-19T19:14:48.106Z,93481.00
2023-02-19T19:15:48.129Z,93481.00
2023-02-19T19:16:48.179Z,93483.00
2023-02-19T19:17:48.227Z,93483.00
2023-02-19T19:18:48.300Z,93481.00
2023-02-19T19:19:48.355Z,93479.00
2023-02-19T19:20:48.407Z,93479.00
2023-02-19T19:21:48.469Z,93479.00
2023-02-19T19:22:48.526Z,93479.00
2023-02-19T19:23:48.645Z,93485.00
2023-02-19T19:24:48.649Z,93485.00
2023-02-19T19:25:48.708Z,93487.00
2023-02-19T19:34:49.226Z,93496.00
2023-02-19T19:35:49.306Z,93498.00
2023-02-19T19:36:49.357Z,93498.00
2023-02-19T19:37:49.434Z,93498.00
2023-02-19T19:38:49.462Z,93502.00
2023-02-19T19:39:49.527Z,93508.00
2023-02-19T19:40:49.586Z,93508.00
2023-02-19T19:41:49.632Z,93512.00
2023-02-19T19:42:49.702Z,93512.00
2023-02-19T19:43:49.824Z,93512.00
2023-02-19T19:44:49.807Z,93510.00
2023-02-19T19:45:49.872Z,93510.00
2023-02-19T19:46:49.925Z,93512.00
2023-02-19T19:47:50.007Z,93512.00
2023-02-19T19:48:50.051Z,93514.00
2023-02-19T19:49:50.104Z,93516.00
2023-02-19T19:50:50.153Z,93518.00
2023-02-19T19:51:50.211Z,93520.00
2023-02-19T19:52:50.273Z,93516.00
2023-02-19T19:53:50.316Z,93516.00
2023-02-19T19:54:50.371Z,93512.00
2023-02-19T19:55:50.433Z,93518.00
2023-02-19T19:56:50.524Z,93514.00
2023-02-19T19:57:50.571Z,93518.00
2023-02-19T19:58:50.625Z,93516.00
2023-02-19T19:59:50.687Z,93514.00
2023-02-19T20:00:50.746Z,93516.00
2023-02-19T20:01:50.865Z,93518.00
2023-02-19T20:02:50.933Z,93516.00
2023-02-19T20:03:50.919Z,93514.00
2023-02-19T20:04:51.012Z,93514.00
2023-02-19T20:05:51.033Z,93512.00
2023-02-19T20:06:51.099Z,93506.00
2023-02-19T20:07:51.170Z,93508.00
2023-02-19T20:08:51.222Z,93506.00
2023-02-19T20:09:51.285Z,93502.00
2023-02-19T20:10:51.338Z,93504.00
2023-02-19T20:11:51.402Z,93506.00
2023-02-19T20:12:51.457Z,93500.00
2023-02-19T20:13:51.521Z,93504.00
2023-02-19T20:14:51.579Z,93504.00
2023-02-19T20:15:51.739Z,93502.00
2023-02-19T20:16:51.701Z,93496.00
2023-02-19T20:17:51.759Z,93500.00
2023-02-19T20:18:51.826Z,93500.00
2023-02-19T20:19:51.878Z,93500.00
2023-02-19T20:20:51.940Z,93504.00
2023-02-19T20:21:52.001Z,93498.00
2023-02-19T20:22:52.085Z,93498.00
2023-02-19T20:23:52.135Z,93498.00
2023-02-19T20:24:52.207Z,93498.00
2023-02-19T20:25:52.256Z,93496.00
2023-02-19T20:26:52.313Z,93496.00
2023-02-19T20:27:52.380Z,93496.00
2023-02-19T20:28:52.439Z,93493.00
2023-02-19T20:29:52.495Z,93491.00
2023-02-19T20:30:52.574Z,93494.00
2023-02-19T20:31:52.766Z,93496.00
2023-02-19T20:32:52.682Z,93498.00
2023-02-19T20:33:52.805Z,93496.00
2023-02-19T20:34:52.788Z,93494.00
2023-02-19T20:35:52.847Z,93494.00
2023-02-19T20:36:53.563Z,93494.00
2023-02-19T20:37:52.966Z,93494.00
2023-02-19T20:38:53.019Z,93494.00
2023-02-19T20:39:53.085Z,93498.00
2023-02-19T20:40:53.140Z,93498.00
2023-02-19T20:41:53.216Z,93496.00
2023-02-19T20:42:53.260Z,93500.00
2023-02-19T20:43:53.320Z,93502.00
2023-02-19T20:44:53.380Z,93500.00
2023-02-19T20:45:53.441Z,93502.00
2023-02-19T20:46:53.570Z,93506.00
2023-02-19T20:47:53.553Z,93506.00
2023-02-19T20:48:53.631Z,93504.00
2023-02-19T20:49:53.701Z,93508.00
2023-02-19T20:50:53.740Z,93512.00
2023-02-19T20:51:53.810Z,93514.00
2023-02-19T20:52:53.860Z,93518.00
2023-02-19T20:53:53.930Z,93518.00
2023-02-19T20:54:53.997Z,93520.00
2023-02-19T20:55:54.052Z,93514.00
2023-02-19T20:56:54.138Z,93516.00
2023-02-19T20:57:54.165Z,93512.00
2023-02-19T20:58:54.214Z,93514.00
2023-02-19T20:59:54.274Z,93516.00
2023-02-19T21:00:54.344Z,93518.00
2023-02-19T21:01:54.443Z,93518.00
2023-02-19T21:02:54.510Z,93520.00
2023-02-19T21:03:54.510Z,93522.00
2023-02-19T21:04:54.577Z,93522.00
2023-02-19T21:05:54.648Z,93524.00
2023-02-19T21:06:54.692Z,93518.00
2023-02-19T21:07:54.755Z,93518.00
2023-02-19T21:08:54.808Z,93520.00
2023-02-19T21:09:54.875Z,93524.00
2023-02-19T21:10:54.935Z,93524.00
2023-02-19T21:11:54.992Z,93522.00
2023-02-19T21:12:55.042Z,93526.00
2023-02-19T21:13:55.101Z,93528.00
2023-02-19T21:14:55.160Z,93526.00
2023-02-19T21:15:55.239Z,93530.00
2023-02-19T21:16:55.274Z,93534.00
2023-02-19T21:17:55.328Z,93530.00
2023-02-19T21:18:55.402Z,93532.00
2023-02-19T21:19:55.503Z,93534.00
2023-02-19T21:20:55.523Z,93538.00
2023-02-19T21:21:55.576Z,93534.00
2023-02-19T21:22:55.629Z,93538.00
2023-02-19T21:23:55.691Z,93532.00
2023-02-19T21:24:55.757Z,93534.00
2023-02-19T21:25:55.812Z,93532.00
2023-02-19T21:26:55.881Z,93538.00
2023-02-19T21:27:55.934Z,93534.00
2023-02-19T21:28:56.003Z,93532.00
2023-02-19T21:29:56.050Z,93532.00
2023-02-19T21:30:56.130Z,93528.00
2023-02-19T21:31:56.335Z,93530.00
2023-02-19T21:32:56.234Z,93532.00
2023-02-19T21:33:56.300Z,93532.00
2023-02-19T21:34:56.358Z,93528.00
2023-02-19T21:35:56.422Z,93526.00
2023-02-19T21:36:56.476Z,93526.00
2023-02-19T21:37:56.531Z,93532.00
2023-02-19T21:38:56.590Z,93530.00
2023-02-19T21:39:56.739Z,93528.00
2023-02-19T21:40:56.714Z,93526.00
2023-02-19T21:41:56.777Z,93528.00
2023-02-19T21:42:56.834Z,93526.00
2023-02-19T21:43:56.896Z,93524.00
2023-02-19T21:44:56.974Z,93522.00
2023-02-19T21:45:57.061Z,93520.00
2023-02-19T21:46:57.099Z,93526.00
2023-02-19T21:47:57.149Z,93524.00
2023-02-19T21:48:57.200Z,93528.00
2023-02-19T21:49:57.271Z,93528.00
2023-02-19T21:50:57.334Z,93522.00
2023-02-19T21:51:57.382Z,93518.00
2023-02-19T21:52:57.449Z,93526.00
2023-02-19T21:53:57.505Z,93524.00
2023-02-19T21:54:57.567Z,93524.00
2023-02-19T21:55:58.948Z,93524.00
2023-02-19T21:56:57.679Z,93528.00
2023-02-19T21:57:57.736Z,93532.00
2023-02-19T21:58:57.794Z,93528.00
2023-02-19T21:59:57.854Z,93530.00
2023-02-19T22:00:58.012Z,93528.00
2023-02-19T22:01:57.967Z,93528.00
2023-02-19T22:02:58.071Z,93532.00
2023-02-19T22:03:58.074Z,93532.00
2023-02-19T22:04:58.138Z,93530.00
2023-02-19T22:05:58.196Z,93528.00
2023-02-19T22:06:58.264Z,93524.00
2023-02-19T22:07:58.309Z,93528.00
2023-02-19T22:08:58.355Z,93530.00
2023-02-19T22:09:58.428Z,93532.00
2023-02-19T22:10:58.466Z,93530.00
2023-02-19T22:11:58.519Z,93534.00
2023-02-19T22:12:58.582Z,93536.00
2023-02-19T22:13:58.624Z,93534.00
2023-02-19T22:14:58.681Z,93536.00
2023-02-19T22:15:58.821Z,93540.00
2023-02-19T22:16:58.777Z,93541.00
2023-02-19T22:17:58.846Z,93541.00
2023-02-19T22:18:58.895Z,93545.00
2023-02-19T22:19:58.951Z,93549.00
2023-02-19T22:20:59.008Z,93551.00
2023-02-19T22:21:59.054Z,93557.00
2023-02-19T22:22:59.109Z,93557.00
2023-02-19T22:23:59.162Z,93561.00
2023-02-19T22:24:59.222Z,93557.00
2023-02-19T22:25:59.320Z,93557.00
2023-02-19T22:26:59.331Z,93555.00
2023-02-19T22:28:00.159Z,93555.00
2023-02-19T22:28:59.479Z,93553.00
2023-02-19T22:29:59.480Z,93551.00
2023-02-19T22:30:59.541Z,93551.00
2023-02-19T22:31:59.708Z,93551.00
2023-02-19T22:32:59.634Z,93553.00
2023-02-19T22:33:59.694Z,93551.00
2023-02-19T22:34:59.742Z,93553.00
2023-02-19T22:35:59.804Z,93549.00
2023-02-19T22:36:59.852Z,93545.00
2023-02-19T22:37:59.901Z,93545.00
2023-02-19T22:38:59.958Z,93545.00
2023-02-19T22:40:00.005Z,93547.00
2023-02-19T22:41:00.078Z,93545.00
2023-02-19T22:42:00.136Z,93543.00
2023-02-19T22:43:00.162Z,93543.00
2023-02-19T22:44:00.225Z,93547.00
2023-02-19T22:45:00.281Z,93549.00
2023-02-19T22:46:00.377Z,93549.00
2023-02-19T22:47:00.392Z,93549.00
2023-02-19T22:48:00.440Z,93547.00
2023-02-19T22:49:00.494Z,93547.00
2023-02-19T22:50:01.113Z,93549.00
2023-02-19T22:51:00.599Z,93551.00
2023-02-19T22:52:00.647Z,93555.00
2023-02-19T22:53:00.691Z,93553.00
2023-02-19T22:54:00.751Z,93555.00
2023-02-19T22:55:00.873Z,93559.00
2023-02-19T22:56:00.843Z,93559.00
2023-02-19T22:57:00.912Z,93561.00
2023-02-19T22:58:00.948Z,93563.00
2023-02-19T22:59:00.995Z,93565.00
2023-02-19T23:00:01.159Z,93563.00
2023-02-19T23:01:01.116Z,93569.00
2023-02-19T23:02:01.158Z,93569.00
2023-02-19T23:03:01.206Z,93571.00
2023-02-19T23:04:01.328Z,93573.00
2023-02-19T23:05:01.309Z,93575.00
2023-02-19T23:06:01.365Z,93573.00
2023-02-19T23:07:01.425Z,93577.00
2023-02-19T23:08:01.477Z,93573.00
2023-02-19T23:09:01.524Z,93571.00
2023-02-19T23:10:01.593Z,93569.00
2023-02-19T23:11:01.648Z,93571.00
2023-02-19T23:12:01.699Z,93571.00